sensor_id;sensor_type;location;lat;lon;timestamp;P1;durP1;ratioP1;P2;durP2;ratioP2
19836;SDS011;10079;55.740;37.662;2022-11-14T00:00:28;0.97;;;0.40;;
19836;SDS011;10079;55.740;37.662;2022-11-14T00:03:31;0.60;;;0.40;;
19836;SDS011;10079;55.740;37.662;2022-11-14T00:06:42;1.23;;;0.57;;
19836;SDS011;10079;55.740;37.662;2022-11-14T00:09:48;0.93;;;0.40;;
19836;SDS011;10079;55.740;37.662;2022-11-14T00:12:47;1.83;;;0.57;;
19836;SDS011;10079;55.740;37.662;2022-11-14T00:15:51;1.43;;;0.50;;
19836;SDS011;10079;55.740;37.662;2022-11-14T00:18:55;1.23;;;0.40;;
19836;SDS011;10079;55.740;37.662;2022-11-14T00:21:57;0.77;;;0.43;;
19836;SDS011;10079;55.740;37.662;2022-11-14T00:25:04;1.57;;;0.40;;
19836;SDS011;10079;55.740;37.662;2022-11-14T00:28:19;2.00;;;0.80;;
19836;SDS011;10079;55.740;37.662;2022-11-14T00:31:32;1.37;;;0.67;;
19836;SDS011;10079;55.740;37.662;2022-11-14T00:34:35;1.43;;;0.50;;
19836;SDS011;10079;55.740;37.662;2022-11-14T00:37:38;1.27;;;0.73;;
19836;SDS011;10079;55.740;37.662;2022-11-14T00:40:41;0.33;;;0.20;;
19836;SDS011;10079;55.740;37.662;2022-11-14T00:43:44;2.13;;;0.60;;
19836;SDS011;10079;55.740;37.662;2022-11-14T00:46:47;0.93;;;0.37;;
19836;SDS011;10079;55.740;37.662;2022-11-14T00:49:50;0.90;;;0.70;;
19836;SDS011;10079;55.740;37.662;2022-11-14T00:52:54;1.57;;;0.60;;
19836;SDS011;10079;55.740;37.662;2022-11-14T00:55:56;0.63;;;0.40;;
19836;SDS011;10079;55.740;37.662;2022-11-14T00:59:03;1.40;;;0.47;;
19836;SDS011;10079;55.740;37.662;2022-11-14T01:02:09;1.03;;;0.40;;
19836;SDS011;10079;55.740;37.662;2022-11-14T01:05:13;1.17;;;0.50;;
19836;SDS011;10079;55.740;37.662;2022-11-14T01:08:16;0.50;;;0.30;;
19836;SDS011;10079;55.740;37.662;2022-11-14T01:11:21;0.90;;;0.40;;
19836;SDS011;10079;55.740;37.662;2022-11-14T01:14:31;1.07;;;0.30;;
19836;SDS011;10079;55.740;37.662;2022-11-14T01:17:35;0.47;;;0.30;;
19836;SDS011;10079;55.740;37.662;2022-11-14T01:20:39;1.90;;;0.40;;
19836;SDS011;10079;55.740;37.662;2022-11-14T01:23:44;0.57;;;0.37;;
19836;SDS011;10079;55.740;37.662;2022-11-14T01:26:56;0.70;;;0.40;;
19836;SDS011;10079;55.740;37.662;2022-11-14T01:29:59;1.27;;;0.60;;
19836;SDS011;10079;55.740;37.662;2022-11-14T01:33:03;0.30;;;0.20;;
19836;SDS011;10079;55.740;37.662;2022-11-14T01:46:56;1.17;;;0.50;;
19836;SDS011;10079;55.740;37.662;2022-11-14T01:50:12;0.20;;;0.20;;
19836;SDS011;10079;55.740;37.662;2022-11-14T01:53:15;1.73;;;0.30;;
19836;SDS011;10079;55.740;37.662;2022-11-14T01:56:24;1.03;;;0.27;;
19836;SDS011;10079;55.740;37.662;2022-11-14T01:59:31;1.27;;;0.37;;
19836;SDS011;10079;55.740;37.662;2022-11-14T02:02:37;1.43;;;0.33;;
19836;SDS011;10079;55.740;37.662;2022-11-14T02:05:40;1.07;;;0.30;;
19836;SDS011;10079;55.740;37.662;2022-11-14T02:08:43;1.13;;;0.20;;
19836;SDS011;10079;55.740;37.662;2022-11-14T02:11:49;0.50;;;0.40;;
19836;SDS011;10079;55.740;37.662;2022-11-14T02:14:56;1.70;;;0.40;;
19836;SDS011;10079;55.740;37.662;2022-11-14T02:18:02;1.90;;;0.30;;
19836;SDS011;10079;55.740;37.662;2022-11-14T02:21:05;1.00;;;0.27;;
19836;SDS011;10079;55.740;37.662;2022-11-14T02:24:09;1.00;;;0.40;;
19836;SDS011;10079;55.740;37.662;2022-11-14T02:27:11;0.80;;;0.30;;
19836;SDS011;10079;55.740;37.662;2022-11-14T02:30:17;0.43;;;0.30;;
19836;SDS011;10079;55.740;37.662;2022-11-14T02:33:17;0.30;;;0.20;;
19836;SDS011;10079;55.740;37.662;2022-11-14T02:36:20;0.70;;;0.40;;
19836;SDS011;10079;55.740;37.662;2022-11-14T02:39:31;0.87;;;0.50;;
19836;SDS011;10079;55.740;37.662;2022-11-14T02:42:34;0.70;;;0.50;;
19836;SDS011;10079;55.740;37.662;2022-11-14T02:45:38;2.03;;;0.43;;
19836;SDS011;10079;55.740;37.662;2022-11-14T02:48:41;1.13;;;0.30;;
19836;SDS011;10079;55.740;37.662;2022-11-14T03:02:29;1.40;;;0.50;;
19836;SDS011;10079;55.740;37.662;2022-11-14T03:05:32;0.97;;;0.57;;
19836;SDS011;10079;55.740;37.662;2022-11-14T03:08:34;2.07;;;0.70;;
19836;SDS011;10079;55.740;37.662;2022-11-14T03:11:38;1.03;;;0.50;;
19836;SDS011;10079;55.740;37.662;2022-11-14T03:14:41;0.63;;;0.40;;
19836;SDS011;10079;55.740;37.662;2022-11-14T03:17:56;1.87;;;0.40;;
19836;SDS011;10079;55.740;37.662;2022-11-14T03:21:04;1.97;;;0.40;;
19836;SDS011;10079;55.740;37.662;2022-11-14T03:24:08;3.33;;;0.40;;
19836;SDS011;10079;55.740;37.662;2022-11-14T03:27:14;2.23;;;0.50;;
19836;SDS011;10079;55.740;37.662;2022-11-14T03:30:27;1.50;;;0.53;;
19836;SDS011;10079;55.740;37.662;2022-11-14T03:33:33;1.10;;;0.40;;
19836;SDS011;10079;55.740;37.662;2022-11-14T03:36:36;0.77;;;0.50;;
19836;SDS011;10079;55.740;37.662;2022-11-14T03:39:39;1.10;;;0.50;;
19836;SDS011;10079;55.740;37.662;2022-11-14T03:42:42;1.00;;;0.30;;
19836;SDS011;10079;55.740;37.662;2022-11-14T03:45:48;3.40;;;0.67;;
19836;SDS011;10079;55.740;37.662;2022-11-14T03:48:53;0.77;;;0.50;;
19836;SDS011;10079;55.740;37.662;2022-11-14T03:51:59;1.57;;;0.40;;
19836;SDS011;10079;55.740;37.662;2022-11-14T03:55:02;0.40;;;0.30;;
19836;SDS011;10079;55.740;37.662;2022-11-14T03:58:06;2.30;;;0.50;;
19836;SDS011;10079;55.740;37.662;2022-11-14T04:01:09;3.13;;;0.53;;
19836;SDS011;10079;55.740;37.662;2022-11-14T04:04:12;2.53;;;0.80;;
19836;SDS011;10079;55.740;37.662;2022-11-14T04:07:16;2.07;;;0.70;;
19836;SDS011;10079;55.740;37.662;2022-11-14T04:10:19;1.33;;;0.50;;
19836;SDS011;10079;55.740;37.662;2022-11-14T04:13:21;2.17;;;0.50;;
19836;SDS011;10079;55.740;37.662;2022-11-14T04:16:25;0.77;;;0.40;;
19836;SDS011;10079;55.740;37.662;2022-11-14T04:19:30;1.00;;;0.50;;
19836;SDS011;10079;55.740;37.662;2022-11-14T04:22:37;1.27;;;0.50;;
19836;SDS011;10079;55.740;37.662;2022-11-14T04:25:43;3.97;;;0.80;;
19836;SDS011;10079;55.740;37.662;2022-11-14T04:28:50;2.33;;;0.67;;
19836;SDS011;10079;55.740;37.662;2022-11-14T04:31:53;2.27;;;1.03;;
19836;SDS011;10079;55.740;37.662;2022-11-14T04:34:56;0.50;;;0.43;;
19836;SDS011;10079;55.740;37.662;2022-11-14T04:48:41;2.77;;;0.90;;
19836;SDS011;10079;55.740;37.662;2022-11-14T04:51:46;2.83;;;1.00;;
19836;SDS011;10079;55.740;37.662;2022-11-14T04:54:52;3.80;;;1.37;;
19836;SDS011;10079;55.740;37.662;2022-11-14T04:57:55;1.80;;;0.80;;
19836;SDS011;10079;55.740;37.662;2022-11-14T05:11:32;2.23;;;1.10;;
19836;SDS011;10079;55.740;37.662;2022-11-14T05:14:36;1.27;;;1.00;;
19836;SDS011;10079;55.740;37.662;2022-11-14T05:17:38;2.47;;;0.80;;
19836;SDS011;10079;55.740;37.662;2022-11-14T05:31:27;2.20;;;0.90;;
19836;SDS011;10079;55.740;37.662;2022-11-14T05:34:30;2.33;;;0.87;;
19836;SDS011;10079;55.740;37.662;2022-11-14T05:37:33;2.17;;;0.80;;
19836;SDS011;10079;55.740;37.662;2022-11-14T05:40:45;2.63;;;0.70;;
19836;SDS011;10079;55.740;37.662;2022-11-14T05:43:51;1.37;;;0.83;;
19836;SDS011;10079;55.740;37.662;2022-11-14T05:46:57;0.93;;;0.70;;
19836;SDS011;10079;55.740;37.662;2022-11-14T05:50:04;2.40;;;0.97;;
19836;SDS011;10079;55.740;37.662;2022-11-14T05:53:07;1.87;;;0.73;;
19836;SDS011;10079;55.740;37.662;2022-11-14T05:56:11;1.50;;;0.87;;
19836;SDS011;10079;55.740;37.662;2022-11-14T05:59:14;2.30;;;1.10;;
19836;SDS011;10079;55.740;37.662;2022-11-14T06:02:17;3.43;;;1.10;;
19836;SDS011;10079;55.740;37.662;2022-11-14T06:05:20;5.10;;;1.13;;
19836;SDS011;10079;55.740;37.662;2022-11-14T06:08:35;3.37;;;1.37;;
19836;SDS011;10079;55.740;37.662;2022-11-14T06:11:41;3.10;;;1.60;;
19836;SDS011;10079;55.740;37.662;2022-11-14T06:25:19;3.67;;;1.50;;
19836;SDS011;10079;55.740;37.662;2022-11-14T06:28:22;4.67;;;1.80;;
19836;SDS011;10079;55.740;37.662;2022-11-14T06:31:28;5.73;;;1.47;;
19836;SDS011;10079;55.740;37.662;2022-11-14T06:34:36;3.03;;;1.50;;
19836;SDS011;10079;55.740;37.662;2022-11-14T06:37:39;4.23;;;1.67;;
19836;SDS011;10079;55.740;37.662;2022-11-14T06:40:42;4.07;;;1.63;;
19836;SDS011;10079;55.740;37.662;2022-11-14T06:43:49;4.27;;;1.17;;
19836;SDS011;10079;55.740;37.662;2022-11-14T06:46:55;3.07;;;1.23;;
19836;SDS011;10079;55.740;37.662;2022-11-14T06:49:58;2.53;;;1.00;;
19836;SDS011;10079;55.740;37.662;2022-11-14T06:53:13;5.17;;;1.40;;
19836;SDS011;10079;55.740;37.662;2022-11-14T06:56:16;3.80;;;1.40;;
19836;SDS011;10079;55.740;37.662;2022-11-14T06:59:19;6.73;;;2.13;;
19836;SDS011;10079;55.740;37.662;2022-11-14T07:02:22;3.93;;;1.33;;
19836;SDS011;10079;55.740;37.662;2022-11-14T07:05:34;3.70;;;1.30;;
19836;SDS011;10079;55.740;37.662;2022-11-14T07:08:37;5.17;;;1.30;;
19836;SDS011;10079;55.740;37.662;2022-11-14T07:11:48;2.73;;;1.20;;
19836;SDS011;10079;55.740;37.662;2022-11-14T07:14:51;3.27;;;1.23;;
19836;SDS011;10079;55.740;37.662;2022-11-14T07:18:04;2.90;;;1.30;;
19836;SDS011;10079;55.740;37.662;2022-11-14T07:21:11;2.33;;;1.20;;
19836;SDS011;10079;55.740;37.662;2022-11-14T07:24:19;3.30;;;1.63;;
19836;SDS011;10079;55.740;37.662;2022-11-14T07:27:23;3.87;;;1.40;;
19836;SDS011;10079;55.740;37.662;2022-11-14T07:30:30;6.07;;;2.90;;
19836;SDS011;10079;55.740;37.662;2022-11-14T07:33:33;4.33;;;1.57;;
19836;SDS011;10079;55.740;37.662;2022-11-14T07:36:40;2.40;;;1.33;;
19836;SDS011;10079;55.740;37.662;2022-11-14T07:39:43;4.80;;;1.70;;
19836;SDS011;10079;55.740;37.662;2022-11-14T07:42:58;4.43;;;1.40;;
19836;SDS011;10079;55.740;37.662;2022-11-14T07:46:12;3.70;;;1.30;;
19836;SDS011;10079;55.740;37.662;2022-11-14T07:49:13;5.03;;;1.67;;
19836;SDS011;10079;55.740;37.662;2022-11-14T07:52:20;3.10;;;1.47;;
19836;SDS011;10079;55.740;37.662;2022-11-14T07:55:27;3.43;;;2.00;;
19836;SDS011;10079;55.740;37.662;2022-11-14T07:58:35;4.67;;;1.47;;
19836;SDS011;10079;55.740;37.662;2022-11-14T08:01:42;4.50;;;1.60;;
19836;SDS011;10079;55.740;37.662;2022-11-14T08:04:53;3.70;;;1.60;;
19836;SDS011;10079;55.740;37.662;2022-11-14T08:07:57;8.60;;;1.70;;
19836;SDS011;10079;55.740;37.662;2022-11-14T08:11:00;5.13;;;1.63;;
19836;SDS011;10079;55.740;37.662;2022-11-14T08:14:07;3.97;;;1.40;;
19836;SDS011;10079;55.740;37.662;2022-11-14T08:17:11;3.70;;;1.67;;
19836;SDS011;10079;55.740;37.662;2022-11-14T08:20:14;2.87;;;1.43;;
19836;SDS011;10079;55.740;37.662;2022-11-14T08:23:20;3.50;;;1.50;;
19836;SDS011;10079;55.740;37.662;2022-11-14T08:26:36;5.07;;;2.00;;
19836;SDS011;10079;55.740;37.662;2022-11-14T08:29:38;5.50;;;2.10;;
19836;SDS011;10079;55.740;37.662;2022-11-14T08:32:44;4.23;;;1.93;;
19836;SDS011;10079;55.740;37.662;2022-11-14T08:35:48;2.60;;;1.30;;
19836;SDS011;10079;55.740;37.662;2022-11-14T08:38:56;5.07;;;1.67;;
19836;SDS011;10079;55.740;37.662;2022-11-14T08:42:07;4.40;;;1.20;;
19836;SDS011;10079;55.740;37.662;2022-11-14T08:45:11;5.43;;;1.73;;
19836;SDS011;10079;55.740;37.662;2022-11-14T08:48:14;4.33;;;1.83;;
19836;SDS011;10079;55.740;37.662;2022-11-14T08:51:26;5.40;;;1.97;;
19836;SDS011;10079;55.740;37.662;2022-11-14T08:54:29;4.10;;;1.40;;
19836;SDS011;10079;55.740;37.662;2022-11-14T08:57:32;5.23;;;1.53;;
19836;SDS011;10079;55.740;37.662;2022-11-14T09:00:35;4.73;;;1.50;;
19836;SDS011;10079;55.740;37.662;2022-11-14T09:03:43;7.47;;;1.60;;
19836;SDS011;10079;55.740;37.662;2022-11-14T09:06:58;6.33;;;1.77;;
19836;SDS011;10079;55.740;37.662;2022-11-14T09:10:02;4.37;;;1.20;;
19836;SDS011;10079;55.740;37.662;2022-11-14T09:13:08;4.50;;;1.50;;
19836;SDS011;10079;55.740;37.662;2022-11-14T09:16:13;4.40;;;1.40;;
19836;SDS011;10079;55.740;37.662;2022-11-14T09:19:20;4.47;;;1.50;;
19836;SDS011;10079;55.740;37.662;2022-11-14T09:22:26;3.50;;;1.50;;
19836;SDS011;10079;55.740;37.662;2022-11-14T09:25:34;10.77;;;2.17;;
19836;SDS011;10079;55.740;37.662;2022-11-14T09:28:37;3.77;;;1.70;;
19836;SDS011;10079;55.740;37.662;2022-11-14T09:31:39;4.77;;;1.77;;
19836;SDS011;10079;55.740;37.662;2022-11-14T09:34:46;5.57;;;1.90;;
19836;SDS011;10079;55.740;37.662;2022-11-14T09:37:53;5.57;;;1.73;;
19836;SDS011;10079;55.740;37.662;2022-11-14T09:41:04;3.73;;;1.13;;
19836;SDS011;10079;55.740;37.662;2022-11-14T09:44:20;3.77;;;1.73;;
19836;SDS011;10079;55.740;37.662;2022-11-14T09:47:53;6.00;;;1.80;;
19836;SDS011;10079;55.740;37.662;2022-11-14T09:51:11;5.97;;;1.67;;
19836;SDS011;10079;55.740;37.662;2022-11-14T09:57:34;5.13;;;1.40;;
19836;SDS011;10079;55.740;37.662;2022-11-14T10:00:50;4.37;;;1.70;;
19836;SDS011;10079;55.740;37.662;2022-11-14T10:14:56;4.83;;;1.40;;
19836;SDS011;10079;55.740;37.662;2022-11-14T10:32:02;3.07;;;1.40;;
19836;SDS011;10079;55.740;37.662;2022-11-14T10:35:23;4.27;;;1.60;;
19836;SDS011;10079;55.740;37.662;2022-11-14T10:38:40;8.87;;;1.70;;
19836;SDS011;10079;55.740;37.662;2022-11-14T10:41:51;2.37;;;1.47;;
19836;SDS011;10079;55.740;37.662;2022-11-14T10:45:17;4.67;;;1.63;;
19836;SDS011;10079;55.740;37.662;2022-11-14T10:48:37;3.03;;;1.10;;
19836;SDS011;10079;55.740;37.662;2022-11-14T11:02:19;5.53;;;2.10;;
19836;SDS011;10079;55.740;37.662;2022-11-14T11:05:28;4.57;;;1.80;;
19836;SDS011;10079;55.740;37.662;2022-11-14T11:19:22;4.70;;;1.70;;
19836;SDS011;10079;55.740;37.662;2022-11-14T11:22:35;5.03;;;1.70;;
19836;SDS011;10079;55.740;37.662;2022-11-14T11:25:38;5.47;;;1.80;;
19836;SDS011;10079;55.740;37.662;2022-11-14T11:39:20;5.03;;;1.80;;
19836;SDS011;10079;55.740;37.662;2022-11-14T11:42:35;3.10;;;1.20;;
19836;SDS011;10079;55.740;37.662;2022-11-14T11:45:44;5.73;;;1.80;;
19836;SDS011;10079;55.740;37.662;2022-11-14T11:48:48;5.63;;;2.10;;
19836;SDS011;10079;55.740;37.662;2022-11-14T11:51:51;2.73;;;1.70;;
19836;SDS011;10079;55.740;37.662;2022-11-14T11:54:59;4.27;;;1.43;;
19836;SDS011;10079;55.740;37.662;2022-11-14T11:58:19;3.57;;;1.37;;
19836;SDS011;10079;55.740;37.662;2022-11-14T12:01:19;5.17;;;1.60;;
19836;SDS011;10079;55.740;37.662;2022-11-14T12:04:26;3.23;;;1.70;;
19836;SDS011;10079;55.740;37.662;2022-11-14T12:07:33;3.23;;;1.53;;
19836;SDS011;10079;55.740;37.662;2022-11-14T12:10:40;4.47;;;1.20;;
19836;SDS011;10079;55.740;37.662;2022-11-14T12:13:49;4.10;;;1.17;;
19836;SDS011;10079;55.740;37.662;2022-11-14T12:17:29;2.53;;;1.10;;
19836;SDS011;10079;55.740;37.662;2022-11-14T12:20:40;2.97;;;1.23;;
19836;SDS011;10079;55.740;37.662;2022-11-14T12:24:03;4.40;;;1.10;;
19836;SDS011;10079;55.740;37.662;2022-11-14T12:27:21;6.03;;;1.03;;
19836;SDS011;10079;55.740;37.662;2022-11-14T12:30:27;4.50;;;1.17;;
19836;SDS011;10079;55.740;37.662;2022-11-14T12:33:32;7.13;;;1.13;;
19836;SDS011;10079;55.740;37.662;2022-11-14T12:36:35;2.33;;;1.00;;
19836;SDS011;10079;55.740;37.662;2022-11-14T12:39:42;4.07;;;1.20;;
19836;SDS011;10079;55.740;37.662;2022-11-14T12:42:51;2.53;;;1.20;;
19836;SDS011;10079;55.740;37.662;2022-11-14T12:45:58;2.13;;;1.00;;
19836;SDS011;10079;55.740;37.662;2022-11-14T12:49:25;2.23;;;1.10;;
19836;SDS011;10079;55.740;37.662;2022-11-14T12:59:36;5.07;;;1.20;;
19836;SDS011;10079;55.740;37.662;2022-11-14T13:06:09;4.03;;;0.90;;
19836;SDS011;10079;55.740;37.662;2022-11-14T13:12:34;3.20;;;1.20;;
19836;SDS011;10079;55.740;37.662;2022-11-14T13:15:52;2.93;;;1.13;;
19836;SDS011;10079;55.740;37.662;2022-11-14T13:19:17;3.90;;;1.50;;
19836;SDS011;10079;55.740;37.662;2022-11-14T13:22:35;3.70;;;1.03;;
19836;SDS011;10079;55.740;37.662;2022-11-14T13:25:38;4.50;;;1.00;;
19836;SDS011;10079;55.740;37.662;2022-11-14T13:28:44;5.23;;;1.07;;
19836;SDS011;10079;55.740;37.662;2022-11-14T13:31:50;5.00;;;1.50;;
19836;SDS011;10079;55.740;37.662;2022-11-14T13:34:58;3.33;;;1.27;;
19836;SDS011;10079;55.740;37.662;2022-11-14T13:44:45;5.37;;;1.40;;
19836;SDS011;10079;55.740;37.662;2022-11-14T13:48:07;3.47;;;1.13;;
19836;SDS011;10079;55.740;37.662;2022-11-14T13:51:17;6.80;;;1.60;;
19836;SDS011;10079;55.740;37.662;2022-11-14T13:54:23;3.00;;;1.17;;
19836;SDS011;10079;55.740;37.662;2022-11-14T13:57:37;5.77;;;1.23;;
19836;SDS011;10079;55.740;37.662;2022-11-14T14:04:07;3.90;;;1.50;;
19836;SDS011;10079;55.740;37.662;2022-11-14T14:07:26;4.13;;;1.50;;
19836;SDS011;10079;55.740;37.662;2022-11-14T14:10:49;2.80;;;1.30;;
19836;SDS011;10079;55.740;37.662;2022-11-14T14:13:58;3.10;;;1.33;;
19836;SDS011;10079;55.740;37.662;2022-11-14T14:17:22;3.03;;;1.07;;
19836;SDS011;10079;55.740;37.662;2022-11-14T14:20:47;4.60;;;1.13;;
19836;SDS011;10079;55.740;37.662;2022-11-14T14:24:04;2.40;;;1.23;;
19836;SDS011;10079;55.740;37.662;2022-11-14T14:34:21;3.60;;;1.10;;
19836;SDS011;10079;55.740;37.662;2022-11-14T14:37:23;9.30;;;1.20;;
19836;SDS011;10079;55.740;37.662;2022-11-14T14:40:29;3.60;;;1.23;;
19836;SDS011;10079;55.740;37.662;2022-11-14T14:43:31;3.90;;;1.20;;
19836;SDS011;10079;55.740;37.662;2022-11-14T14:46:34;4.37;;;1.43;;
19836;SDS011;10079;55.740;37.662;2022-11-14T14:49:37;4.13;;;1.43;;
19836;SDS011;10079;55.740;37.662;2022-11-14T14:52:54;3.33;;;1.33;;
19836;SDS011;10079;55.740;37.662;2022-11-14T14:55:57;4.83;;;1.40;;
19836;SDS011;10079;55.740;37.662;2022-11-14T14:59:13;3.10;;;1.33;;
19836;SDS011;10079;55.740;37.662;2022-11-14T15:02:15;5.17;;;1.67;;
19836;SDS011;10079;55.740;37.662;2022-11-14T15:05:22;4.53;;;1.67;;
19836;SDS011;10079;55.740;37.662;2022-11-14T15:08:23;2.87;;;1.30;;
19836;SDS011;10079;55.740;37.662;2022-11-14T15:11:27;2.97;;;1.33;;
19836;SDS011;10079;55.740;37.662;2022-11-14T15:14:31;3.33;;;1.47;;
19836;SDS011;10079;55.740;37.662;2022-11-14T15:28:16;4.17;;;1.50;;
19836;SDS011;10079;55.740;37.662;2022-11-14T15:45:44;5.73;;;1.90;;
19836;SDS011;10079;55.740;37.662;2022-11-14T15:48:59;4.37;;;1.10;;
19836;SDS011;10079;55.740;37.662;2022-11-14T15:52:16;2.70;;;1.37;;
19836;SDS011;10079;55.740;37.662;2022-11-14T15:55:26;3.33;;;1.30;;
19836;SDS011;10079;55.740;37.662;2022-11-14T15:58:29;5.03;;;1.37;;
19836;SDS011;10079;55.740;37.662;2022-11-14T16:01:46;5.40;;;1.60;;
19836;SDS011;10079;55.740;37.662;2022-11-14T16:04:48;3.30;;;1.50;;
19836;SDS011;10079;55.740;37.662;2022-11-14T16:07:58;2.70;;;1.23;;
19836;SDS011;10079;55.740;37.662;2022-11-14T16:19:03;6.30;;;1.63;;
19836;SDS011;10079;55.740;37.662;2022-11-14T16:22:11;4.77;;;1.20;;
19836;SDS011;10079;55.740;37.662;2022-11-14T16:25:15;2.90;;;1.27;;
19836;SDS011;10079;55.740;37.662;2022-11-14T16:28:18;3.37;;;1.27;;
19836;SDS011;10079;55.740;37.662;2022-11-14T16:31:22;5.00;;;1.40;;
19836;SDS011;10079;55.740;37.662;2022-11-14T16:34:28;6.10;;;1.50;;
19836;SDS011;10079;55.740;37.662;2022-11-14T16:37:34;4.13;;;1.30;;
19836;SDS011;10079;55.740;37.662;2022-11-14T16:40:39;2.33;;;1.20;;
19836;SDS011;10079;55.740;37.662;2022-11-14T16:43:45;2.33;;;1.10;;
19836;SDS011;10079;55.740;37.662;2022-11-14T16:46:52;1.47;;;0.90;;
19836;SDS011;10079;55.740;37.662;2022-11-14T16:49:58;3.13;;;1.13;;
19836;SDS011;10079;55.740;37.662;2022-11-14T16:53:05;3.90;;;1.00;;
19836;SDS011;10079;55.740;37.662;2022-11-14T16:56:20;3.37;;;1.40;;
19836;SDS011;10079;55.740;37.662;2022-11-14T16:59:23;9.00;;;1.63;;
19836;SDS011;10079;55.740;37.662;2022-11-14T17:02:26;3.20;;;1.30;;
19836;SDS011;10079;55.740;37.662;2022-11-14T17:05:32;4.03;;;1.27;;
19836;SDS011;10079;55.740;37.662;2022-11-14T17:11:57;1.57;;;0.77;;
19836;SDS011;10079;55.740;37.662;2022-11-14T17:15:04;5.40;;;1.40;;
19836;SDS011;10079;55.740;37.662;2022-11-14T17:18:07;2.57;;;1.30;;
19836;SDS011;10079;55.740;37.662;2022-11-14T17:21:10;4.40;;;1.07;;
19836;SDS011;10079;55.740;37.662;2022-11-14T17:24:13;4.63;;;1.30;;
19836;SDS011;10079;55.740;37.662;2022-11-14T17:27:15;3.93;;;1.20;;
19836;SDS011;10079;55.740;37.662;2022-11-14T17:30:22;3.27;;;1.40;;
19836;SDS011;10079;55.740;37.662;2022-11-14T17:33:25;5.53;;;1.80;;
19836;SDS011;10079;55.740;37.662;2022-11-14T17:36:30;4.33;;;1.37;;
19836;SDS011;10079;55.740;37.662;2022-11-14T17:39:33;5.97;;;1.60;;
19836;SDS011;10079;55.740;37.662;2022-11-14T17:42:36;3.33;;;1.20;;
19836;SDS011;10079;55.740;37.662;2022-11-14T17:45:39;3.33;;;1.03;;
19836;SDS011;10079;55.740;37.662;2022-11-14T17:49:00;3.50;;;1.00;;
19836;SDS011;10079;55.740;37.662;2022-11-14T17:52:06;3.13;;;1.43;;
19836;SDS011;10079;55.740;37.662;2022-11-14T17:55:21;7.20;;;1.60;;
19836;SDS011;10079;55.740;37.662;2022-11-14T17:58:28;3.17;;;1.10;;
19836;SDS011;10079;55.740;37.662;2022-11-14T18:01:34;6.23;;;1.80;;
19836;SDS011;10079;55.740;37.662;2022-11-14T18:04:37;3.80;;;1.20;;
19836;SDS011;10079;55.740;37.662;2022-11-14T18:07:43;4.63;;;1.30;;
19836;SDS011;10079;55.740;37.662;2022-11-14T18:10:50;2.90;;;0.90;;
19836;SDS011;10079;55.740;37.662;2022-11-14T18:24:29;2.30;;;1.00;;
19836;SDS011;10079;55.740;37.662;2022-11-14T18:27:44;3.17;;;1.10;;
19836;SDS011;10079;55.740;37.662;2022-11-14T18:30:52;2.77;;;1.27;;
19836;SDS011;10079;55.740;37.662;2022-11-14T18:33:58;5.37;;;1.70;;
19836;SDS011;10079;55.740;37.662;2022-11-14T18:37:11;4.87;;;1.30;;
19836;SDS011;10079;55.740;37.662;2022-11-14T18:40:17;2.30;;;1.37;;
19836;SDS011;10079;55.740;37.662;2022-11-14T18:43:24;2.40;;;1.00;;
19836;SDS011;10079;55.740;37.662;2022-11-14T18:46:30;3.23;;;1.00;;
19836;SDS011;10079;55.740;37.662;2022-11-14T18:49:44;3.47;;;1.00;;
19836;SDS011;10079;55.740;37.662;2022-11-14T18:52:49;2.17;;;0.93;;
19836;SDS011;10079;55.740;37.662;2022-11-14T18:55:56;0.70;;;0.67;;
19836;SDS011;10079;55.740;37.662;2022-11-14T18:59:01;1.40;;;0.70;;
19836;SDS011;10079;55.740;37.662;2022-11-14T19:02:16;1.50;;;0.80;;
19836;SDS011;10079;55.740;37.662;2022-11-14T19:05:22;1.90;;;0.73;;
19836;SDS011;10079;55.740;37.662;2022-11-14T19:08:28;2.17;;;0.70;;
19836;SDS011;10079;55.740;37.662;2022-11-14T19:11:31;3.20;;;1.27;;
19836;SDS011;10079;55.740;37.662;2022-11-14T19:14:35;2.83;;;1.17;;
19836;SDS011;10079;55.740;37.662;2022-11-14T19:17:37;3.93;;;1.50;;
19836;SDS011;10079;55.740;37.662;2022-11-14T19:20:54;4.03;;;1.17;;
19836;SDS011;10079;55.740;37.662;2022-11-14T19:23:53;2.23;;;0.90;;
19836;SDS011;10079;55.740;37.662;2022-11-14T19:26:58;1.40;;;0.77;;
19836;SDS011;10079;55.740;37.662;2022-11-14T19:30:05;1.70;;;0.73;;
19836;SDS011;10079;55.740;37.662;2022-11-14T19:33:10;1.90;;;1.00;;
19836;SDS011;10079;55.740;37.662;2022-11-14T19:36:18;2.80;;;0.90;;
19836;SDS011;10079;55.740;37.662;2022-11-14T19:39:23;3.17;;;1.07;;
19836;SDS011;10079;55.740;37.662;2022-11-14T19:42:39;4.33;;;0.93;;
19836;SDS011;10079;55.740;37.662;2022-11-14T19:45:54;4.23;;;0.90;;
19836;SDS011;10079;55.740;37.662;2022-11-14T19:49:00;2.43;;;1.10;;
19836;SDS011;10079;55.740;37.662;2022-11-14T19:52:03;4.00;;;1.20;;
19836;SDS011;10079;55.740;37.662;2022-11-14T19:55:06;3.33;;;1.27;;
19836;SDS011;10079;55.740;37.662;2022-11-14T19:58:10;2.20;;;0.93;;
19836;SDS011;10079;55.740;37.662;2022-11-14T20:01:19;3.63;;;1.20;;
19836;SDS011;10079;55.740;37.662;2022-11-14T20:04:22;1.20;;;0.47;;
19836;SDS011;10079;55.740;37.662;2022-11-14T20:07:29;1.33;;;0.70;;
19836;SDS011;10079;55.740;37.662;2022-11-14T20:10:32;2.63;;;0.60;;
19836;SDS011;10079;55.740;37.662;2022-11-14T20:13:37;1.97;;;0.90;;
19836;SDS011;10079;55.740;37.662;2022-11-14T20:16:38;1.37;;;0.70;;
19836;SDS011;10079;55.740;37.662;2022-11-14T20:19:45;1.73;;;0.73;;
19836;SDS011;10079;55.740;37.662;2022-11-14T20:22:57;3.50;;;1.03;;
19836;SDS011;10079;55.740;37.662;2022-11-14T20:26:00;2.83;;;0.70;;
19836;SDS011;10079;55.740;37.662;2022-11-14T20:29:15;1.80;;;1.20;;
19836;SDS011;10079;55.740;37.662;2022-11-14T20:32:23;1.30;;;0.70;;
19836;SDS011;10079;55.740;37.662;2022-11-14T20:35:38;1.90;;;0.87;;
19836;SDS011;10079;55.740;37.662;2022-11-14T20:38:41;2.70;;;0.60;;
19836;SDS011;10079;55.740;37.662;2022-11-14T20:41:44;1.90;;;0.90;;
19836;SDS011;10079;55.740;37.662;2022-11-14T20:44:48;0.57;;;0.50;;
19836;SDS011;10079;55.740;37.662;2022-11-14T20:58:21;2.30;;;0.70;;
19836;SDS011;10079;55.740;37.662;2022-11-14T21:01:27;1.33;;;0.60;;
19836;SDS011;10079;55.740;37.662;2022-11-14T21:04:42;1.23;;;0.70;;
19836;SDS011;10079;55.740;37.662;2022-11-14T21:07:57;1.70;;;0.70;;
19836;SDS011;10079;55.740;37.662;2022-11-14T21:11:04;2.50;;;0.60;;
19836;SDS011;10079;55.740;37.662;2022-11-14T21:24:46;1.53;;;0.70;;
19836;SDS011;10079;55.740;37.662;2022-11-14T21:27:52;1.77;;;0.70;;
19836;SDS011;10079;55.740;37.662;2022-11-14T21:30:55;4.93;;;0.87;;
19836;SDS011;10079;55.740;37.662;2022-11-14T21:34:05;1.87;;;0.80;;
19836;SDS011;10079;55.740;37.662;2022-11-14T21:37:08;1.43;;;0.70;;
19836;SDS011;10079;55.740;37.662;2022-11-14T21:40:11;2.20;;;0.70;;
19836;SDS011;10079;55.740;37.662;2022-11-14T21:43:22;3.47;;;0.77;;
19836;SDS011;10079;55.740;37.662;2022-11-14T21:46:28;0.67;;;0.50;;
19836;SDS011;10079;55.740;37.662;2022-11-14T22:00:06;5.00;;;2.10;;
19836;SDS011;10079;55.740;37.662;2022-11-14T22:03:11;2.87;;;0.90;;
19836;SDS011;10079;55.740;37.662;2022-11-14T22:06:11;2.53;;;0.90;;
19836;SDS011;10079;55.740;37.662;2022-11-14T22:09:18;2.90;;;0.80;;
19836;SDS011;10079;55.740;37.662;2022-11-14T22:12:21;3.47;;;0.70;;
19836;SDS011;10079;55.740;37.662;2022-11-14T22:15:25;1.70;;;0.70;;
19836;SDS011;10079;55.740;37.662;2022-11-14T22:18:27;1.97;;;0.90;;
19836;SDS011;10079;55.740;37.662;2022-11-14T22:21:31;1.37;;;0.80;;